Anyang, China
Current Conditions -  °F | °C
As of 9:00 PM on Monday 24 Nov 2014 (Local Time) from ZHCC Reporting Station
Haze Haze  
Wind Chill: 43°   Ceiling: Unl
Heat Index: 46°   Visibility: 1.8mi
Dew Point: 37°   Wind: 7mph
Humidity: 71%   Direction: 20°NNE
Pressure: 30.27"   Gusts: NA
Location:  36.08°N, 114.35°E
Report Text: ZHCC 241300Z 02003MPS 350V080 3000 HZ NSC 08/03 Q1025 NOSIG
Loading
Personal Weather Stations






























Interactive Weather Map New forecast layout! Learn more

10-Day Weather Forecast

Advertisements
Track Severe Weather on mobile